Windsor, Kentucky
Current Conditions -  °F | °C
As of 4:35 AM on Tuesday 21 Oct 2014 (Local Time) from KSME Reporting Station
Moderate Fog Moderate Fog  
Wind Chill: 45°   Ceiling: 200
Heat Index: 45°   Visibility: 0.5mi
Dew Point: 45°   Wind: 0mph
Humidity: 100%   Direction: NA
Pressure: 29.98"   Gusts: NA
Location:  37.13°N, 84.91°W
Report Text: KSME 210835Z AUTO 00000KT 1/2SM FG OVC002 07/07 A2998 RMK AO2
Loading
Personal Weather Stations






























Interactive Weather Map
Tropical Storm Tracking
New forecast layout! Learn more

10-Day Weather Forecast

Advertisements
Track Severe Weather on mobile